Terminal Aerodrome Forecast
Issued by NWS

Home | Current Version | Previous Version | Text Only | Print | Product List | Glossary On
Versions: 1 2 3 4 5 6 7 8 9 10 11 12 13 14 15
000
FTUS45 KABQ 041145
TAFTCC
TAF
KTCC 041145Z 0412/0512 22008KT P6SM BKN200
     FM041800 21015G25KT P6SM SCT080
     FM050200 20009KT P6SM BKN200=

USA.gov is the U.S. government's official web portal to all federal, state and local government web resources and services.